Time;durP1;ratioP1;P1;durP2;ratioP2;P2;SDS_P1;SDS_P2;PMS_P1;PMS_P2;Temp;Humidity;BMP_temperature;BMP_pressure;BME280_temperature;BME280_humidity;BME280_pressure;Samples;Min_cycle;Max_cycle;Signal;HPM_P1;HPM_P2
2022/09/25 00:00:48;;;;;;;4.75;1.25;;;12.90;84.40;;;;;;5041067;28;20029;-66
2022/09/25 00:03:15;;;;;;;2.03;1.00;;;12.80;84.30;;;;;;5039019;28;20162;-66
2022/09/25 00:05:42;;;;;;;1.95;1.10;;;12.90;84.40;;;;;;5042184;28;20025;-66
2022/09/25 00:08:09;;;;;;;3.85;1.20;;;12.80;84.30;;;;;;5040938;28;20068;-66
2022/09/25 00:10:47;;;;;;;5.80;1.20;;;12.80;84.30;;;;;;5036153;28;20512;-66
2022/09/25 00:13:18;;;;;;;2.10;1.17;;;12.80;84.20;;;;;;5040098;28;20099;-67
2022/09/25 00:15:50;;;;;;;3.78;1.20;;;12.80;84.30;;;;;;5038930;28;20021;-66
2022/09/25 00:19:48;;;;;;;1.38;1.08;;;12.70;84.20;;;;;;5042239;28;20695;-66
2022/09/25 00:21:03;;;;;;;3.30;1.27;;;12.70;84.30;;;;;;5040206;28;20048;-66
2022/09/25 00:23:28;;;;;;;3.13;1.50;;;12.60;84.40;;;;;;5038183;28;20029;-66
2022/09/25 00:25:55;;;;;;;5.45;1.38;;;12.60;84.40;;;;;;5037631;28;20098;-66
2022/09/25 00:28:21;;;;;;;2.05;1.00;;;12.60;84.40;;;;;;5044115;28;20113;-66
2022/09/25 00:30:47;;;;;;;2.15;1.13;;;12.60;84.40;;;;;;5036670;28;20100;-65
2022/09/25 00:33:12;;;;;;;2.85;1.00;;;12.50;84.30;;;;;;5037451;28;20075;-65
2022/09/25 00:35:38;;;;;;;2.85;1.40;;;12.50;84.40;;;;;;5037609;28;20025;-65
2022/09/25 00:38:03;;;;;;;4.13;1.20;;;12.50;84.40;;;;;;5040378;28;20021;-65
2022/09/25 00:40:29;;;;;;;2.20;1.00;;;12.40;84.40;;;;;;5039996;28;20032;-65
2022/09/25 00:42:54;;;;;;;2.15;1.10;;;12.40;84.40;;;;;;5040174;28;20100;-65
2022/09/25 00:45:21;;;;;;;2.53;1.30;;;12.40;84.40;;;;;;5040730;28;20024;-65
2022/09/25 00:47:58;;;;;;;3.28;1.00;;;12.30;84.30;;;;;;5039795;28;20527;-65
2022/09/25 00:50:24;;;;;;;1.65;1.00;;;12.30;84.40;;;;;;5036294;28;20029;-65
2022/09/25 00:52:53;;;;;;;3.05;1.20;;;12.30;84.40;;;;;;5038664;28;20033;-66
2022/09/25 00:55:22;;;;;;;3.22;1.08;;;12.20;84.30;;;;;;5035372;28;20033;-65
2022/09/25 00:57:52;;;;;;;2.38;1.20;;;12.20;84.40;;;;;;5036318;28;20030;-67
2022/09/25 01:00:18;;;;;;;3.17;1.10;;;12.10;84.40;;;;;;5040909;28;20393;-66
2022/09/25 01:02:51;;;;;;;2.83;1.17;;;12.10;85.10;;;;;;5041649;28;20021;-66
2022/09/25 01:05:25;;;;;;;3.67;1.10;;;12.10;84.50;;;;;;5036294;28;20071;-67
2022/09/25 01:07:51;;;;;;;2.60;1.13;;;12.00;84.50;;;;;;5038251;28;20048;-67
2022/09/25 01:10:19;;;;;;;1.33;1.13;;;12.00;84.50;;;;;;5037573;28;20037;-66
2022/09/25 01:12:47;;;;;;;3.05;1.10;;;11.90;84.40;;;;;;5034942;28;20029;-66
2022/09/25 01:15:16;;;;;;;2.95;1.40;;;11.90;84.40;;;;;;5035620;28;20028;-66
2022/09/25 01:18:11;;;;;;;3.50;1.17;;;11.80;84.40;;;;;;5040180;28;20025;-66
2022/09/25 01:20:47;;;;;;;3.33;1.27;;;11.80;84.40;;;;;;5042844;28;20079;-66
2022/09/25 01:23:39;;;;;;;1.50;1.10;;;11.80;84.50;;;;;;5035670;28;20121;-66
2022/09/25 01:26:27;;;;;;;1.77;1.02;;;11.80;84.50;;;;;;5040022;28;20039;-66
2022/09/25 01:29:21;;;;;;;2.00;1.10;;;11.70;84.60;;;;;;5040890;28;20021;-66
2022/09/25 01:32:19;;;;;;;4.55;1.45;;;11.70;84.60;;;;;;5038899;28;20025;-65
2022/09/25 01:34:59;;;;;;;2.83;1.30;;;11.70;84.60;;;;;;5036653;28;20072;-65
2022/09/25 01:37:30;;;;;;;2.88;1.40;;;11.60;84.60;;;;;;5034646;28;20041;-65
2022/09/25 01:40:06;;;;;;;2.63;1.20;;;11.60;84.60;;;;;;5038111;28;20033;-66
2022/09/25 01:42:51;;;;;;;3.30;1.10;;;11.50;84.60;;;;;;5040198;28;20029;-66
2022/09/25 01:45:27;;;;;;;3.60;1.20;;;11.50;84.70;;;;;;5041770;28;20471;-66
2022/09/25 01:47:56;;;;;;;4.22;1.33;;;11.50;84.70;;;;;;5038918;28;20024;-66
2022/09/25 01:50:28;;;;;;;2.08;1.30;;;11.50;84.70;;;;;;5039830;28;20029;-66
2022/09/25 01:52:58;;;;;;;2.20;1.33;;;11.40;84.70;;;;;;5039984;28;20488;-66
2022/09/25 01:55:42;;;;;;;1.30;1.20;;;11.40;84.80;;;;;;5041320;28;20033;-65
2022/09/25 01:58:16;;;;;;;2.60;1.30;;;11.40;84.70;;;;;;5039184;28;20104;-66
2022/09/25 02:00:49;;;;;;;2.75;1.20;;;11.40;84.80;;;;;;5035151;28;20041;-65
2022/09/25 02:03:29;;;;;;;2.05;1.30;;;11.40;84.80;;;;;;5033731;28;20036;-65
2022/09/25 02:06:01;;;;;;;1.88;1.17;;;11.30;84.70;;;;;;5038431;28;20519;-66
2022/09/25 02:08:35;;;;;;;2.50;1.35;;;11.30;84.70;;;;;;5037330;28;20408;-66
2022/09/25 02:11:03;;;;;;;3.10;1.30;;;11.30;84.70;;;;;;5040381;28;20059;-66
2022/09/25 02:13:36;;;;;;;1.85;1.00;;;11.30;84.60;;;;;;5042827;28;20113;-67
2022/09/25 02:16:08;;;;;;;3.20;1.20;;;11.30;84.60;;;;;;5042322;28;20036;-66
2022/09/25 02:21:21;;;;;;;3.25;1.40;;;11.20;84.60;;;;;;5039237;28;20043;-66
2022/09/25 02:24:01;;;;;;;3.33;1.30;;;11.20;84.70;;;;;;5036236;28;20506;-66
2022/09/25 02:26:29;;;;;;;2.90;1.50;;;11.20;84.70;;;;;;5043060;28;20027;-66
2022/09/25 02:28:56;;;;;;;2.30;1.33;;;11.10;84.70;;;;;;5034199;28;20114;-66
2022/09/25 02:31:30;;;;;;;2.13;1.00;;;11.10;84.70;;;;;;5040187;28;20026;-66
2022/09/25 02:33:57;;;;;;;2.30;1.40;;;11.10;84.80;;;;;;5042360;28;20025;-66
2022/09/25 02:36:22;;;;;;;2.30;1.17;;;11.10;84.80;;;;;;5039396;28;20021;-66
2022/09/25 02:38:50;;;;;;;2.33;1.13;;;11.10;84.80;;;;;;5040249;28;20361;-66
2022/09/25 02:41:38;;;;;;;2.70;1.20;;;11.20;84.80;;;;;;5041824;28;20473;-66
2022/09/25 02:44:25;;;;;;;2.05;1.33;;;11.10;84.70;;;;;;5039718;28;20017;-66
2022/09/25 02:46:59;;;;;;;1.70;1.20;;;11.10;84.90;;;;;;5038022;28;20029;-67
2022/09/25 02:49:28;;;;;;;3.95;1.40;;;11.00;84.90;;;;;;5040115;28;20029;-67
2022/09/25 02:51:59;;;;;;;3.42;1.48;;;11.00;84.90;;;;;;5038989;28;20079;-67
2022/09/25 02:54:39;;;;;;;3.43;1.13;;;11.00;84.90;;;;;;5036462;28;20037;-66
2022/09/25 02:57:31;;;;;;;2.50;1.40;;;11.00;84.90;;;;;;5040498;28;20643;-67
2022/09/25 03:00:00;;;;;;;2.47;1.10;;;11.00;84.80;;;;;;5043264;28;20079;-66
2022/09/25 03:02:28;;;;;;;2.78;1.25;;;11.00;84.80;;;;;;5041747;28;20380;-66
2022/09/25 03:04:55;;;;;;;1.92;1.20;;;11.10;84.90;;;;;;5040070;28;20385;-66
2022/09/25 03:07:20;;;;;;;6.07;1.60;;;11.10;84.80;;;;;;5045066;28;20030;-66
2022/09/25 03:09:49;;;;;;;2.72;1.30;;;11.00;84.80;;;;;;5041534;28;20032;-67
2022/09/25 03:12:14;;;;;;;2.28;1.30;;;11.00;84.80;;;;;;5037504;28;20080;-66
2022/09/25 03:14:40;;;;;;;2.60;1.70;;;11.00;84.70;;;;;;5041121;28;20415;-66
2022/09/25 03:17:08;;;;;;;1.77;1.40;;;11.00;84.70;;;;;;5043026;28;20391;-66
2022/09/25 03:19:34;;;;;;;2.92;1.40;;;10.90;84.80;;;;;;5040972;28;20100;-66
2022/09/25 03:22:01;;;;;;;3.75;1.48;;;10.90;84.90;;;;;;5039635;28;20031;-67
2022/09/25 03:24:26;;;;;;;1.90;1.30;;;10.90;85.00;;;;;;5040141;28;20483;-65
2022/09/25 03:26:53;;;;;;;2.08;1.20;;;11.00;85.10;;;;;;5041642;28;20028;-66
2022/09/25 03:29:20;;;;;;;1.67;1.08;;;11.00;85.10;;;;;;5042930;28;20109;-66
2022/09/25 03:31:46;;;;;;;3.83;1.20;;;11.00;85.10;;;;;;5044700;28;20079;-66
2022/09/25 03:34:14;;;;;;;3.45;1.20;;;11.10;85.00;;;;;;5039163;28;20029;-66
2022/09/25 03:36:41;;;;;;;3.30;1.30;;;11.10;85.00;;;;;;5041677;28;20534;-66
2022/09/25 03:39:09;;;;;;;3.63;1.20;;;11.10;84.80;;;;;;5036408;28;20481;-66
2022/09/25 03:41:35;;;;;;;1.15;1.00;;;11.10;84.80;;;;;;5042129;28;20531;-66
2022/09/25 03:44:01;;;;;;;1.75;1.30;;;11.00;84.80;;;;;;5037410;28;20105;-66
2022/09/25 03:46:31;;;;;;;2.33;1.20;;;11.00;84.90;;;;;;5039871;28;20033;-66
2022/09/25 03:48:58;;;;;;;2.75;1.48;;;10.90;84.90;;;;;;5039459;28;20051;-65
2022/09/25 03:51:24;;;;;;;2.40;1.40;;;10.90;85.00;;;;;;5039274;28;20020;-65
2022/09/25 03:53:50;;;;;;;2.63;1.77;;;10.90;85.00;;;;;;5041191;28;20029;-66
2022/09/25 03:56:19;;;;;;;3.60;1.50;;;10.90;85.10;;;;;;5040650;28;20044;-65
2022/09/25 03:58:46;;;;;;;3.70;1.60;;;10.80;85.10;;;;;;5037222;28;20041;-66
2022/09/25 04:01:12;;;;;;;3.00;1.70;;;10.80;85.20;;;;;;5039432;28;20075;-65
2022/09/25 04:03:38;;;;;;;3.42;1.40;;;10.80;85.30;;;;;;5039226;28;20399;-64
2022/09/25 04:06:06;;;;;;;2.92;1.60;;;10.70;85.30;;;;;;5037057;28;20068;-64
2022/09/25 04:08:33;;;;;;;3.30;1.55;;;10.70;85.40;;;;;;5034557;28;20025;-64
2022/09/25 04:11:00;;;;;;;4.13;1.40;;;10.70;85.50;;;;;;5034950;28;20025;-65
2022/09/25 04:13:28;;;;;;;4.65;1.50;;;10.60;85.50;;;;;;5036819;28;20037;-65
2022/09/25 04:15:55;;;;;;;3.25;1.60;;;10.70;85.60;;;;;;5036999;28;20025;-65
2022/09/25 04:18:21;;;;;;;2.20;1.40;;;10.70;85.60;;;;;;5035502;28;20098;-65
2022/09/25 04:20:47;;;;;;;1.85;1.40;;;10.70;85.60;;;;;;5033159;28;20021;-65
2022/09/25 04:23:13;;;;;;;2.78;1.60;;;10.70;85.50;;;;;;5035713;28;20132;-66
2022/09/25 04:25:38;;;;;;;2.72;1.50;;;10.70;85.60;;;;;;5041411;28;20061;-66
2022/09/25 04:28:06;;;;;;;1.95;1.20;;;10.60;85.50;;;;;;5040239;28;20029;-67
2022/09/25 04:30:32;;;;;;;3.03;1.40;;;10.70;85.60;;;;;;5037107;28;20634;-66
2022/09/25 04:35:42;;;;;;;2.65;1.50;;;10.60;85.50;;;;;;5036383;28;20041;-66
2022/09/25 04:38:08;;;;;;;2.58;1.23;;;10.60;85.60;;;;;;5040138;28;20026;-66
2022/09/25 04:40:35;;;;;;;3.88;1.67;;;10.60;85.60;;;;;;5037271;28;20017;-67
2022/09/25 04:43:03;;;;;;;1.60;1.30;;;10.60;85.70;;;;;;5035619;28;20018;-67
2022/09/25 04:45:32;;;;;;;2.45;1.30;;;10.60;85.70;;;;;;5044656;28;20025;-66
2022/09/25 04:47:59;;;;;;;1.30;1.20;;;10.60;85.70;;;;;;5038727;28;20025;-66
2022/09/25 04:50:25;;;;;;;4.15;1.75;;;10.60;85.70;;;;;;5039695;28;20033;-65
2022/09/25 04:52:51;;;;;;;2.17;1.42;;;10.70;85.70;;;;;;5037319;28;20021;-66
2022/09/25 04:55:18;;;;;;;2.60;1.40;;;10.70;85.60;;;;;;5036885;28;20037;-66
2022/09/25 04:57:44;;;;;;;3.70;1.70;;;10.70;85.60;;;;;;5039507;28;20036;-65
2022/09/25 05:00:11;;;;;;;3.00;1.58;;;10.60;85.60;;;;;;5039352;28;20446;-66
2022/09/25 05:02:36;;;;;;;2.13;1.30;;;10.70;85.70;;;;;;5039085;28;20021;-66
2022/09/25 05:05:02;;;;;;;3.45;1.77;;;10.70;85.70;;;;;;5037576;28;20096;-66
2022/09/25 05:07:28;;;;;;;4.00;1.60;;;10.60;85.70;;;;;;5036169;28;20026;-66
2022/09/25 05:09:54;;;;;;;2.40;1.50;;;10.60;85.80;;;;;;5038031;28;20028;-67
2022/09/25 05:12:19;;;;;;;2.58;1.55;;;10.60;85.80;;;;;;5038019;28;20029;-67
2022/09/25 05:14:45;;;;;;;5.63;1.70;;;10.60;85.80;;;;;;5042300;28;20041;-66
2022/09/25 05:17:11;;;;;;;2.55;1.40;;;10.60;85.80;;;;;;5042760;28;20104;-66
2022/09/25 05:19:37;;;;;;;4.70;1.60;;;10.50;85.80;;;;;;5038076;28;20036;-66
2022/09/25 05:22:03;;;;;;;7.03;1.50;;;10.50;85.80;;;;;;5037807;28;20602;-65
2022/09/25 05:24:30;;;;;;;4.93;1.38;;;10.50;85.80;;;;;;5042854;28;20103;-65
2022/09/25 05:26:56;;;;;;;1.50;1.40;;;10.50;85.80;;;;;;5036588;28;20511;-65
2022/09/25 05:29:21;;;;;;;4.15;1.55;;;10.50;85.80;;;;;;5033723;28;20032;-66
2022/09/25 05:31:48;;;;;;;1.88;1.40;;;10.50;85.70;;;;;;5033058;28;20018;-63
2022/09/25 05:34:14;;;;;;;1.83;1.52;;;10.50;85.60;;;;;;5038325;28;20079;-64
2022/09/25 05:36:40;;;;;;;8.88;1.40;;;10.50;85.60;;;;;;5033786;28;20025;-65
2022/09/25 05:39:07;;;;;;;12.02;1.30;;;10.50;85.50;;;;;;5036815;28;20558;-65
2022/09/25 05:41:33;;;;;;;6.78;1.10;;;10.50;85.60;;;;;;5038517;28;20026;-65
2022/09/25 05:44:01;;;;;;;1.08;0.90;;;10.40;85.50;;;;;;5040133;28;20022;-65
2022/09/25 05:46:27;;;;;;;3.40;1.00;;;10.40;85.50;;;;;;5041043;28;20025;-65
2022/09/25 05:48:53;;;;;;;13.07;0.93;;;10.40;85.70;;;;;;5044055;28;20028;-65
2022/09/25 05:51:19;;;;;;;7.55;0.93;;;10.40;85.70;;;;;;5042218;28;20033;-65
2022/09/25 05:53:44;;;;;;;10.82;1.08;;;10.40;85.60;;;;;;5040816;28;20039;-65
2022/09/25 05:56:10;;;;;;;9.82;1.10;;;10.30;85.50;;;;;;5043340;28;20068;-65
2022/09/25 05:58:35;;;;;;;1.70;0.90;;;10.30;85.40;;;;;;5039620;28;20532;-66
2022/09/25 06:01:05;;;;;;;11.38;1.23;;;10.30;85.50;;;;;;5042579;28;20384;-66
2022/09/25 06:03:31;;;;;;;4.15;1.10;;;10.40;85.50;;;;;;5044238;28;20403;-65
2022/09/25 06:05:57;;;;;;;9.80;1.20;;;10.40;85.40;;;;;;5043915;28;20037;-65
2022/09/25 06:08:24;;;;;;;14.57;1.20;;;10.30;85.30;;;;;;5039306;28;20022;-65
2022/09/25 06:10:53;;;;;;;16.58;1.20;;;10.30;85.40;;;;;;5039601;28;20021;-65
2022/09/25 06:13:19;;;;;;;7.13;1.17;;;10.30;85.40;;;;;;5040783;28;20029;-65
2022/09/25 06:15:45;;;;;;;4.53;1.38;;;10.30;85.20;;;;;;5040367;28;20407;-64
2022/09/25 06:18:10;;;;;;;1.98;1.10;;;10.40;85.20;;;;;;5044932;28;20104;-64
2022/09/25 06:20:36;;;;;;;7.13;1.20;;;10.40;85.10;;;;;;5046432;28;20034;-64
2022/09/25 06:23:02;;;;;;;4.70;1.05;;;10.40;84.90;;;;;;5039955;28;20048;-63
2022/09/25 06:25:29;;;;;;;3.22;1.02;;;10.50;84.80;;;;;;5036110;28;20057;-63
2022/09/25 06:27:59;;;;;;;8.55;1.27;;;10.50;84.70;;;;;;5040810;28;20017;-65
2022/09/25 06:30:33;;;;;;;4.07;1.30;;;10.60;84.60;;;;;;5040953;28;20420;-65
2022/09/25 06:33:03;;;;;;;7.28;1.15;;;10.60;84.40;;;;;;5043674;28;20029;-65
2022/09/25 06:35:29;;;;;;;7.00;1.30;;;10.70;84.40;;;;;;5040224;28;20022;-66
2022/09/25 06:38:00;;;;;;;5.53;1.23;;;10.70;84.30;;;;;;5041395;28;20026;-65
2022/09/25 06:40:27;;;;;;;8.50;1.08;;;10.80;84.10;;;;;;5037685;28;20519;-66
2022/09/25 06:43:01;;;;;;;2.72;1.10;;;10.90;83.90;;;;;;5040454;28;20048;-65
2022/09/25 06:45:30;;;;;;;1.75;0.90;;;10.90;83.90;;;;;;5040655;28;20022;-65
2022/09/25 06:48:03;;;;;;;3.20;1.30;;;10.80;83.90;;;;;;5037927;28;20415;-65
2022/09/25 06:50:42;;;;;;;1.60;1.30;;;10.90;83.90;;;;;;5042329;28;20036;-65
2022/09/25 06:53:09;;;;;;;1.63;1.27;;;11.00;83.90;;;;;;5036283;28;20091;-65
2022/09/25 06:55:36;;;;;;;1.45;1.35;;;11.10;84.00;;;;;;5036870;28;20111;-65
2022/09/25 06:58:03;;;;;;;1.20;1.10;;;11.10;84.00;;;;;;5041532;28;20025;-65
2022/09/25 07:00:29;;;;;;;1.23;1.13;;;11.10;84.00;;;;;;5038417;28;20041;-65
2022/09/25 07:05:43;;;;;;;2.38;1.00;;;11.20;83.90;;;;;;5034853;28;20432;-66
2022/09/25 07:08:13;;;;;;;2.03;1.00;;;11.30;84.00;;;;;;5040396;28;20017;-66
2022/09/25 07:10:39;;;;;;;1.63;1.15;;;11.30;84.00;;;;;;5039226;28;20032;-66
2022/09/25 07:13:05;;;;;;;1.65;1.10;;;11.40;84.00;;;;;;5040666;28;20037;-65
2022/09/25 07:15:31;;;;;;;1.25;1.10;;;11.40;83.90;;;;;;5037979;28;20070;-66
2022/09/25 07:17:56;;;;;;;1.80;1.38;;;11.40;83.90;;;;;;5040155;28;20037;-65
2022/09/25 07:20:22;;;;;;;3.15;1.40;;;11.50;84.00;;;;;;5040370;28;20401;-65
2022/09/25 07:22:47;;;;;;;2.55;1.50;;;11.60;84.10;;;;;;5040496;28;20033;-65
2022/09/25 07:25:13;;;;;;;1.50;1.23;;;11.60;84.00;;;;;;5037839;28;20151;-65
2022/09/25 07:27:39;;;;;;;1.60;1.10;;;11.60;84.00;;;;;;5036359;28;20034;-65
2022/09/25 07:30:06;;;;;;;1.55;1.20;;;11.70;84.00;;;;;;5044819;28;20066;-65
2022/09/25 07:32:32;;;;;;;2.58;1.40;;;11.70;84.10;;;;;;5044206;28;20032;-65
2022/09/25 07:34:58;;;;;;;1.00;0.90;;;11.80;84.10;;;;;;5036666;28;20030;-66
2022/09/25 07:37:24;;;;;;;1.20;1.10;;;11.80;83.90;;;;;;5038899;28;20476;-65
2022/09/25 07:39:49;;;;;;;2.08;1.40;;;11.90;83.90;;;;;;5037551;28;20583;-65
2022/09/25 07:42:16;;;;;;;2.00;1.40;;;11.90;83.80;;;;;;5035961;28;20057;-65
2022/09/25 07:44:41;;;;;;;1.75;1.20;;;11.90;83.70;;;;;;5036407;28;20021;-65
2022/09/25 07:47:07;;;;;;;1.10;1.00;;;11.90;83.70;;;;;;5036400;28;20491;-64
2022/09/25 07:49:33;;;;;;;1.45;1.20;;;11.90;83.70;;;;;;5039354;28;20694;-65
2022/09/25 07:52:00;;;;;;;2.42;1.50;;;12.00;83.70;;;;;;5040180;28;20060;-65
2022/09/25 07:54:25;;;;;;;1.55;1.20;;;12.00;83.60;;;;;;5040309;28;20394;-66
2022/09/25 07:56:51;;;;;;;1.65;1.20;;;12.10;83.70;;;;;;5037283;28;20060;-65
2022/09/25 07:59:17;;;;;;;1.75;1.20;;;12.20;83.70;;;;;;5040046;28;20493;-66
2022/09/25 08:01:42;;;;;;;1.67;1.10;;;12.20;83.70;;;;;;5040813;28;20066;-65
2022/09/25 08:04:09;;;;;;;2.08;1.42;;;12.30;83.60;;;;;;5038758;28;20075;-65
2022/09/25 08:06:35;;;;;;;3.08;1.60;;;12.30;83.50;;;;;;5041295;28;20049;-65
2022/09/25 08:09:01;;;;;;;1.38;1.23;;;12.40;83.60;;;;;;5045659;28;20033;-65
2022/09/25 08:11:27;;;;;;;1.77;1.33;;;12.40;83.60;;;;;;5048064;28;20056;-65
2022/09/25 08:13:53;;;;;;;2.78;1.30;;;12.50;83.40;;;;;;5035413;28;20017;-66
2022/09/25 08:16:21;;;;;;;2.28;1.30;;;12.60;83.40;;;;;;5040874;28;20025;-66
2022/09/25 08:18:48;;;;;;;2.67;1.52;;;12.70;83.50;;;;;;5042280;28;20108;-66
2022/09/25 08:21:16;;;;;;;3.10;1.30;;;12.80;83.40;;;;;;5034287;28;20030;-64
2022/09/25 08:23:44;;;;;;;1.73;1.27;;;12.90;83.50;;;;;;5041179;28;20051;-65
2022/09/25 08:26:10;;;;;;;6.20;1.35;;;13.10;83.40;;;;;;5040381;28;20100;-65
2022/09/25 08:28:35;;;;;;;2.63;1.38;;;13.20;83.40;;;;;;5040215;28;20104;-66
2022/09/25 08:31:02;;;;;;;2.13;1.27;;;13.30;83.30;;;;;;5043419;28;20107;-66
2022/09/25 08:33:29;;;;;;;2.15;1.40;;;13.40;83.10;;;;;;5042325;28;20488;-66
2022/09/25 08:36:00;;;;;;;2.60;1.40;;;13.40;83.00;;;;;;5038802;28;20802;-65
2022/09/25 08:38:27;;;;;;;1.20;1.10;;;13.50;83.10;;;;;;5044185;28;20038;-65
2022/09/25 08:41:19;;;;;;;1.95;1.20;;;13.60;83.00;;;;;;5040699;28;20484;-65
2022/09/25 08:44:18;;;;;;;1.27;1.17;;;13.60;82.90;;;;;;5041712;28;20108;-64
2022/09/25 08:50:01;;;;;;;2.47;1.30;;;13.80;82.80;;;;;;5038530;28;20129;-66
2022/09/25 08:52:27;;;;;;;2.95;1.30;;;14.00;82.90;;;;;;5037474;28;20106;-63
2022/09/25 08:54:53;;;;;;;2.13;1.10;;;14.10;82.70;;;;;;5037655;28;20112;-64
2022/09/25 08:57:42;;;;;;;2.67;1.20;;;14.10;82.60;;;;;;5044015;28;20101;-65
2022/09/25 09:00:34;;;;;;;2.22;1.20;;;14.20;83.00;;;;;;5038661;28;20063;-64
2022/09/25 09:03:00;;;;;;;2.67;1.17;;;14.30;82.40;;;;;;5039161;28;20037;-64
2022/09/25 09:05:36;;;;;;;1.17;0.82;;;14.40;82.30;;;;;;5037621;28;20022;-64
2022/09/25 09:08:07;;;;;;;1.20;1.00;;;14.40;82.20;;;;;;5044010;28;20111;-63
2022/09/25 09:10:36;;;;;;;3.35;1.15;;;14.50;82.10;;;;;;5041732;28;20120;-63
2022/09/25 09:13:29;;;;;;;2.58;0.95;;;14.50;81.80;;;;;;5040456;28;20036;-63
2022/09/25 09:16:00;;;;;;;2.90;1.10;;;14.60;81.70;;;;;;5040559;28;20041;-65
2022/09/25 09:18:29;;;;;;;3.35;1.00;;;14.70;81.40;;;;;;5040730;28;20052;-65
2022/09/25 09:21:14;;;;;;;3.17;1.10;;;14.70;81.30;;;;;;5042924;28;20086;-65
2022/09/25 09:24:00;;;;;;;3.25;1.20;;;14.80;81.00;;;;;;5044082;28;20029;-66
2022/09/25 09:26:51;;;;;;;2.40;1.08;;;14.90;80.90;;;;;;5041014;28;20025;-65
2022/09/25 09:29:55;;;;;;;2.65;0.93;;;14.90;80.70;;;;;;5043028;28;20067;-65
2022/09/25 09:32:38;;;;;;;1.67;0.82;;;15.00;80.60;;;;;;5049601;28;20036;-66
2022/09/25 09:35:04;;;;;;;2.35;0.90;;;15.00;80.30;;;;;;5046233;28;20479;-65
2022/09/25 09:37:30;;;;;;;1.98;1.08;;;15.10;80.20;;;;;;5048156;28;20059;-65
2022/09/25 09:40:14;;;;;;;1.75;0.85;;;15.10;79.90;;;;;;5046300;28;20032;-64
2022/09/25 09:43:28;;;;;;;3.08;1.00;;;15.20;79.10;;;;;;5052051;28;20047;-66
2022/09/25 09:45:57;;;;;;;2.50;0.80;;;15.20;79.00;;;;;;5050654;28;20032;-65
2022/09/25 09:48:51;;;;;;;1.92;0.70;;;15.30;78.80;;;;;;5050173;28;20021;-65
2022/09/25 09:51:31;;;;;;;1.88;0.73;;;15.30;78.20;;;;;;5049347;28;20032;-65
2022/09/25 09:54:06;;;;;;;3.35;0.85;;;15.40;77.80;;;;;;5050023;28;20041;-66
2022/09/25 09:56:34;;;;;;;2.38;0.80;;;15.50;77.50;;;;;;5045430;28;20022;-66
2022/09/25 09:59:25;;;;;;;3.80;1.58;;;15.60;77.30;;;;;;5041503;28;20108;-66
2022/09/25 10:02:03;;;;;;;1.08;0.80;;;15.60;77.00;;;;;;5046509;28;20044;-66
2022/09/25 10:04:35;;;;;;;3.25;1.00;;;15.60;76.80;;;;;;5048891;28;20033;-65
2022/09/25 10:07:08;;;;;;;2.25;0.73;;;15.60;76.70;;;;;;5052130;28;20103;-64
2022/09/25 10:09:36;;;;;;;2.35;0.80;;;15.60;76.00;;;;;;5049833;28;20170;-66
2022/09/25 10:12:10;;;;;;;1.13;0.75;;;15.70;75.30;;;;;;5052944;28;20013;-65
2022/09/25 10:14:41;;;;;;;2.88;0.80;;;15.70;74.70;;;;;;5048683;28;20468;-65
2022/09/25 10:17:10;;;;;;;1.98;0.90;;;15.80;73.60;;;;;;5052602;28;20025;-66
2022/09/25 10:19:46;;;;;;;3.50;0.98;;;15.80;73.70;;;;;;5042219;28;20055;-64
2022/09/25 10:22:15;;;;;;;3.30;0.80;;;16.00;73.50;;;;;;5038330;28;20051;-65
2022/09/25 10:25:00;;;;;;;1.80;0.65;;;16.10;73.10;;;;;;5040598;28;20025;-65
2022/09/25 10:27:40;;;;;;;2.78;0.70;;;16.20;72.80;;;;;;5042547;28;20021;-64
2022/09/25 10:30:08;;;;;;;3.38;1.58;;;16.30;72.60;;;;;;5039915;28;20116;-64
2022/09/25 10:32:58;;;;;;;1.98;1.20;;;16.30;72.50;;;;;;5042817;28;20060;-65
2022/09/25 10:35:40;;;;;;;1.73;0.77;;;16.30;72.60;;;;;;5041247;28;20021;-64
2022/09/25 10:38:31;;;;;;;2.70;0.80;;;16.30;72.50;;;;;;5041904;28;20055;-64
2022/09/25 10:41:07;;;;;;;3.10;1.00;;;16.30;72.00;;;;;;5040405;28;20107;-65
2022/09/25 10:43:33;;;;;;;2.00;1.40;;;16.30;71.40;;;;;;5041453;28;20428;-65
2022/09/25 10:46:12;;;;;;;0.95;0.70;;;16.40;70.80;;;;;;5049846;28;20017;-65
2022/09/25 10:51:23;;;;;;;2.15;1.30;;;16.60;70.20;;;;;;5048564;28;20133;-64
2022/09/25 10:53:51;;;;;;;1.00;0.88;;;16.80;69.80;;;;;;5038223;28;20036;-63
2022/09/25 10:56:37;;;;;;;1.70;0.80;;;16.90;69.50;;;;;;5041479;28;20036;-64
2022/09/25 10:59:28;;;;;;;2.92;1.00;;;16.90;69.50;;;;;;5040226;28;20528;-64
2022/09/25 11:01:54;;;;;;;1.80;0.90;;;16.90;69.30;;;;;;5038624;28;20052;-65
2022/09/25 11:04:20;;;;;;;0.85;0.70;;;16.90;69.00;;;;;;5044972;28;20104;-63
2022/09/25 11:06:51;;;;;;;1.83;0.98;;;16.90;68.60;;;;;;5036833;28;20104;-63
2022/09/25 11:09:25;;;;;;;1.33;1.10;;;16.90;68.50;;;;;;5040708;28;20029;-64
2022/09/25 11:12:03;;;;;;;1.27;0.90;;;17.00;68.60;;;;;;5042666;28;20029;-65
2022/09/25 11:14:31;;;;;;;1.90;0.90;;;17.10;67.80;;;;;;5039467;28;20553;-63
2022/09/25 11:16:59;;;;;;;1.20;1.00;;;17.20;67.10;;;;;;5044560;28;20037;-65
2022/09/25 11:19:36;;;;;;;1.02;0.80;;;17.30;66.20;;;;;;5045493;28;20034;-63
2022/09/25 11:22:32;;;;;;;1.23;0.90;;;17.40;64.90;;;;;;5038928;28;20021;-64
2022/09/25 11:25:14;;;;;;;1.00;0.80;;;17.50;64.30;;;;;;5039089;28;20025;-63
2022/09/25 11:27:53;;;;;;;1.70;1.10;;;17.50;64.00;;;;;;5040797;28;20020;-64
2022/09/25 11:30:20;;;;;;;1.40;0.77;;;17.60;63.90;;;;;;5037453;28;20029;-65
2022/09/25 11:33:16;;;;;;;2.20;0.70;;;17.60;63.40;;;;;;5042698;28;20025;-65
2022/09/25 11:36:07;;;;;;;2.08;0.90;;;17.70;61.40;;;;;;5039423;28;20060;-64
2022/09/25 11:41:37;;;;;;;1.88;0.40;;;18.00;61.60;;;;;;5041719;28;20051;-64
2022/09/25 11:44:21;;;;;;;3.80;0.68;;;18.10;61.10;;;;;;5041849;28;20082;-65
2022/09/25 11:47:00;;;;;;;1.10;0.40;;;18.10;60.60;;;;;;5039805;28;20030;-64
2022/09/25 11:49:30;;;;;;;1.98;0.70;;;18.20;60.70;;;;;;5044011;28;20443;-64
2022/09/25 11:52:15;;;;;;;2.15;0.70;;;18.20;60.80;;;;;;5044120;28;20029;-64
2022/09/25 11:55:14;;;;;;;2.53;0.70;;;18.20;61.00;;;;;;5042511;28;20029;-65
2022/09/25 11:57:51;;;;;;;7.60;4.45;;;18.00;60.90;;;;;;5041941;28;20541;-65
2022/09/25 12:00:30;;;;;;;4.85;2.50;;;17.80;61.40;;;;;;5040427;28;20025;-64
2022/09/25 12:03:15;;;;;;;2.13;1.30;;;17.70;62.20;;;;;;5039267;28;20021;-64
2022/09/25 12:05:52;;;;;;;2.08;0.90;;;17.80;62.30;;;;;;5045332;28;20116;-65
2022/09/25 12:08:43;;;;;;;2.17;0.80;;;18.00;62.10;;;;;;5043249;28;20028;-64
2022/09/25 12:11:27;;;;;;;1.08;0.60;;;18.10;61.70;;;;;;5042001;28;20039;-64
2022/09/25 12:14:02;;;;;;;2.22;0.90;;;18.20;61.40;;;;;;5044021;28;20044;-64
2022/09/25 12:16:44;;;;;;;1.25;0.60;;;18.30;60.50;;;;;;5046680;28;20025;-65
2022/09/25 12:19:28;;;;;;;1.48;0.90;;;18.20;60.40;;;;;;5044319;28;20386;-65
2022/09/25 12:22:00;;;;;;;2.83;1.27;;;18.20;60.90;;;;;;5045369;28;20032;-65
2022/09/25 12:24:44;;;;;;;2.22;0.90;;;18.20;61.20;;;;;;5040866;28;20052;-65
2022/09/25 12:27:40;;;;;;;0.90;0.70;;;18.20;61.30;;;;;;5041058;28;20025;-65
2022/09/25 12:30:26;;;;;;;2.00;0.68;;;18.10;61.60;;;;;;5040961;28;20025;-65
2022/09/25 12:33:01;;;;;;;1.67;0.70;;;18.10;62.00;;;;;;5048261;28;20029;-66
2022/09/25 12:35:52;;;;;;;1.02;0.50;;;18.30;62.20;;;;;;5046134;28;20029;-65
2022/09/25 12:38:49;;;;;;;1.90;0.85;;;18.50;62.00;;;;;;5039400;28;20485;-65
2022/09/25 12:41:32;;;;;;;0.98;0.60;;;18.70;61.00;;;;;;5045287;28;20045;-65
2022/09/25 12:44:06;;;;;;;1.75;0.60;;;19.00;60.60;;;;;;5039980;28;20442;-65
2022/09/25 12:46:42;;;;;;;1.00;0.50;;;19.20;60.10;;;;;;5044641;28;20543;-65
2022/09/25 12:49:36;;;;;;;2.45;0.70;;;19.40;60.00;;;;;;5046574;28;20035;-66
2022/09/25 12:52:13;;;;;;;1.65;0.63;;;19.50;59.70;;;;;;5045821;28;20491;-65
2022/09/25 12:54:46;;;;;;;3.00;2.08;;;19.60;59.50;;;;;;5043929;28;20032;-64
2022/09/25 12:57:22;;;;;;;1.75;1.00;;;19.60;59.00;;;;;;5039318;28;20036;-65
2022/09/25 12:59:53;;;;;;;1.92;0.73;;;19.60;57.10;;;;;;5039449;28;20017;-65
2022/09/25 13:02:33;;;;;;;1.98;0.77;;;19.60;57.50;;;;;;5039500;28;20037;-65
2022/09/25 13:05:05;;;;;;;1.58;0.60;;;19.60;57.50;;;;;;5044834;28;20102;-65
2022/09/25 13:08:10;;;;;;;2.60;0.90;;;19.80;57.40;;;;;;5041026;28;20379;-65
2022/09/25 13:10:48;;;;;;;3.38;0.70;;;20.10;57.20;;;;;;5045522;28;20057;-65
2022/09/25 13:13:24;;;;;;;1.98;0.55;;;20.30;56.10;;;;;;5044025;28;20041;-65
2022/09/25 13:15:56;;;;;;;1.70;0.77;;;20.30;55.50;;;;;;5046797;28;20059;-64
2022/09/25 13:18:24;;;;;;;2.33;0.77;;;20.40;56.00;;;;;;5045440;28;20028;-65
2022/09/25 13:21:30;;;;;;;2.20;0.70;;;20.40;54.90;;;;;;5036561;28;20032;-66
2022/09/25 13:23:56;;;;;;;0.95;0.50;;;20.40;54.80;;;;;;5034031;28;20380;-65
2022/09/25 13:26:25;;;;;;;1.60;0.47;;;20.30;54.50;;;;;;5037000;28;20080;-65
2022/09/25 13:28:59;;;;;;;2.25;1.08;;;20.30;54.70;;;;;;5046453;28;20543;-64